sensor_id;sensor_type;location;lat;lon;timestamp;P1;durP1;ratioP1;P2;durP2;ratioP2
77152;SDS011;66124;51.146;17.072;2023-11-19T00:01:32;22.40;;;10.60;;
77152;SDS011;66124;51.146;17.072;2023-11-19T00:04:01;26.60;;;13.90;;
77152;SDS011;66124;51.146;17.072;2023-11-19T00:06:31;26.90;;;13.80;;
77152;SDS011;66124;51.146;17.072;2023-11-19T00:09:00;24.80;;;12.20;;
77152;SDS011;66124;51.146;17.072;2023-11-19T00:11:30;22.90;;;11.50;;
77152;SDS011;66124;51.146;17.072;2023-11-19T00:13:59;19.40;;;10.20;;
77152;SDS011;66124;51.146;17.072;2023-11-19T00:16:28;19.30;;;10.50;;
77152;SDS011;66124;51.146;17.072;2023-11-19T00:18:58;22.40;;;10.90;;
77152;SDS011;66124;51.146;17.072;2023-11-19T00:21:27;20.50;;;10.60;;
77152;SDS011;66124;51.146;17.072;2023-11-19T00:23:57;28.60;;;12.20;;
77152;SDS011;66124;51.146;17.072;2023-11-19T00:26:26;21.50;;;10.90;;
77152;SDS011;66124;51.146;17.072;2023-11-19T00:28:56;18.90;;;10.10;;
77152;SDS011;66124;51.146;17.072;2023-11-19T00:31:26;20.40;;;9.80;;
77152;SDS011;66124;51.146;17.072;2023-11-19T00:46:29;19.50;;;10.10;;
77152;SDS011;66124;51.146;17.072;2023-11-19T00:48:58;17.40;;;8.30;;
77152;SDS011;66124;51.146;17.072;2023-11-19T00:51:28;19.20;;;9.10;;
77152;SDS011;66124;51.146;17.072;2023-11-19T00:53:57;16.70;;;8.80;;
77152;SDS011;66124;51.146;17.072;2023-11-19T00:56:27;15.30;;;8.70;;
77152;SDS011;66124;51.146;17.072;2023-11-19T00:58:57;18.00;;;9.10;;
77152;SDS011;66124;51.146;17.072;2023-11-19T01:01:27;16.10;;;8.90;;
77152;SDS011;66124;51.146;17.072;2023-11-19T01:03:56;19.10;;;9.60;;
77152;SDS011;66124;51.146;17.072;2023-11-19T01:06:29;19.10;;;9.20;;
77152;SDS011;66124;51.146;17.072;2023-11-19T01:08:59;17.50;;;8.20;;
77152;SDS011;66124;51.146;17.072;2023-11-19T01:11:29;17.70;;;8.70;;
77152;SDS011;66124;51.146;17.072;2023-11-19T01:13:59;22.10;;;11.00;;
77152;SDS011;66124;51.146;17.072;2023-11-19T01:16:28;16.50;;;8.70;;
77152;SDS011;66124;51.146;17.072;2023-11-19T01:18:58;18.00;;;9.00;;
77152;SDS011;66124;51.146;17.072;2023-11-19T01:21:27;18.30;;;9.30;;
77152;SDS011;66124;51.146;17.072;2023-11-19T01:23:56;16.30;;;8.30;;
77152;SDS011;66124;51.146;17.072;2023-11-19T01:26:26;14.80;;;7.60;;
77152;SDS011;66124;51.146;17.072;2023-11-19T01:28:56;17.80;;;8.80;;
77152;SDS011;66124;51.146;17.072;2023-11-19T01:31:25;16.50;;;8.10;;
77152;SDS011;66124;51.146;17.072;2023-11-19T01:33:54;18.10;;;9.10;;
77152;SDS011;66124;51.146;17.072;2023-11-19T01:36:24;22.40;;;10.20;;
77152;SDS011;66124;51.146;17.072;2023-11-19T01:38:53;17.90;;;9.00;;
77152;SDS011;66124;51.146;17.072;2023-11-19T01:41:22;16.30;;;9.20;;
77152;SDS011;66124;51.146;17.072;2023-11-19T01:43:52;18.50;;;9.20;;
77152;SDS011;66124;51.146;17.072;2023-11-19T01:46:21;18.60;;;8.70;;
77152;SDS011;66124;51.146;17.072;2023-11-19T01:48:51;17.80;;;8.70;;
77152;SDS011;66124;51.146;17.072;2023-11-19T01:51:21;18.70;;;9.50;;
77152;SDS011;66124;51.146;17.072;2023-11-19T01:53:51;15.80;;;7.90;;
77152;SDS011;66124;51.146;17.072;2023-11-19T01:56:21;26.20;;;11.70;;
77152;SDS011;66124;51.146;17.072;2023-11-19T02:09:10;18.70;;;8.90;;
77152;SDS011;66124;51.146;17.072;2023-11-19T02:11:40;19.70;;;8.80;;
77152;SDS011;66124;51.146;17.072;2023-11-19T02:14:10;18.70;;;9.60;;
77152;SDS011;66124;51.146;17.072;2023-11-19T02:16:39;18.10;;;8.90;;
77152;SDS011;66124;51.146;17.072;2023-11-19T02:19:09;16.10;;;8.80;;
77152;SDS011;66124;51.146;17.072;2023-11-19T02:21:38;19.00;;;8.30;;
77152;SDS011;66124;51.146;17.072;2023-11-19T02:24:09;16.20;;;7.90;;
77152;SDS011;66124;51.146;17.072;2023-11-19T02:26:44;17.60;;;8.10;;
77152;SDS011;66124;51.146;17.072;2023-11-19T02:29:20;16.60;;;8.80;;
77152;SDS011;66124;51.146;17.072;2023-11-19T02:31:50;21.50;;;9.80;;
77152;SDS011;66124;51.146;17.072;2023-11-19T02:34:19;14.00;;;7.30;;
77152;SDS011;66124;51.146;17.072;2023-11-19T02:36:48;17.40;;;8.10;;
77152;SDS011;66124;51.146;17.072;2023-11-19T02:39:18;17.90;;;8.60;;
77152;SDS011;66124;51.146;17.072;2023-11-19T02:41:48;19.70;;;8.90;;
77152;SDS011;66124;51.146;17.072;2023-11-19T02:44:17;13.50;;;7.50;;
77152;SDS011;66124;51.146;17.072;2023-11-19T02:46:46;15.20;;;7.60;;
77152;SDS011;66124;51.146;17.072;2023-11-19T02:49:16;15.10;;;7.90;;
77152;SDS011;66124;51.146;17.072;2023-11-19T02:51:45;18.80;;;8.60;;
77152;SDS011;66124;51.146;17.072;2023-11-19T02:54:15;15.60;;;8.10;;
77152;SDS011;66124;51.146;17.072;2023-11-19T02:56:44;22.70;;;10.90;;
77152;SDS011;66124;51.146;17.072;2023-11-19T02:59:13;18.30;;;8.90;;
77152;SDS011;66124;51.146;17.072;2023-11-19T03:01:43;18.20;;;9.10;;
77152;SDS011;66124;51.146;17.072;2023-11-19T03:04:13;14.90;;;7.70;;
77152;SDS011;66124;51.146;17.072;2023-11-19T03:06:43;17.00;;;8.70;;
77152;SDS011;66124;51.146;17.072;2023-11-19T03:09:12;19.50;;;9.70;;
77152;SDS011;66124;51.146;17.072;2023-11-19T03:11:42;18.30;;;9.20;;
77152;SDS011;66124;51.146;17.072;2023-11-19T03:14:11;17.50;;;8.70;;
77152;SDS011;66124;51.146;17.072;2023-11-19T03:16:40;13.40;;;7.20;;
77152;SDS011;66124;51.146;17.072;2023-11-19T03:19:12;7.80;;;4.00;;
77152;SDS011;66124;51.146;17.072;2023-11-19T03:31:02;15.40;;;7.70;;
77152;SDS011;66124;51.146;17.072;2023-11-19T03:33:34;17.40;;;8.60;;
77152;SDS011;66124;51.146;17.072;2023-11-19T03:36:04;20.60;;;10.50;;
77152;SDS011;66124;51.146;17.072;2023-11-19T03:38:35;17.60;;;8.90;;
77152;SDS011;66124;51.146;17.072;2023-11-19T03:41:11;16.20;;;9.00;;
77152;SDS011;66124;51.146;17.072;2023-11-19T03:43:41;16.30;;;8.40;;
77152;SDS011;66124;51.146;17.072;2023-11-19T03:46:18;18.80;;;9.20;;
77152;SDS011;66124;51.146;17.072;2023-11-19T03:48:48;16.90;;;9.60;;
77152;SDS011;66124;51.146;17.072;2023-11-19T03:51:18;15.40;;;8.10;;
77152;SDS011;66124;51.146;17.072;2023-11-19T03:53:47;18.10;;;8.30;;
77152;SDS011;66124;51.146;17.072;2023-11-19T03:56:17;15.80;;;8.10;;
77152;SDS011;66124;51.146;17.072;2023-11-19T03:58:46;19.20;;;9.00;;
77152;SDS011;66124;51.146;17.072;2023-11-19T04:01:16;16.40;;;7.40;;
77152;SDS011;66124;51.146;17.072;2023-11-19T04:03:45;22.00;;;9.00;;
77152;SDS011;66124;51.146;17.072;2023-11-19T04:06:14;13.80;;;6.70;;
77152;SDS011;66124;51.146;17.072;2023-11-19T04:08:44;17.70;;;8.90;;
77152;SDS011;66124;51.146;17.072;2023-11-19T04:11:14;16.40;;;7.10;;
77152;SDS011;66124;51.146;17.072;2023-11-19T04:13:43;16.90;;;8.40;;
77152;SDS011;66124;51.146;17.072;2023-11-19T04:16:12;17.20;;;7.50;;
77152;SDS011;66124;51.146;17.072;2023-11-19T04:18:42;15.70;;;7.80;;
77152;SDS011;66124;51.146;17.072;2023-11-19T04:21:11;18.50;;;8.30;;
77152;SDS011;66124;51.146;17.072;2023-11-19T04:23:41;14.70;;;7.40;;
77152;SDS011;66124;51.146;17.072;2023-11-19T04:26:10;18.30;;;9.10;;
77152;SDS011;66124;51.146;17.072;2023-11-19T04:28:39;16.40;;;7.60;;
77152;SDS011;66124;51.146;17.072;2023-11-19T04:31:09;14.10;;;7.10;;
77152;SDS011;66124;51.146;17.072;2023-11-19T04:33:38;13.70;;;6.50;;
77152;SDS011;66124;51.146;17.072;2023-11-19T04:36:09;13.90;;;6.10;;
77152;SDS011;66124;51.146;17.072;2023-11-19T04:38:38;16.80;;;7.10;;
77152;SDS011;66124;51.146;17.072;2023-11-19T04:41:08;13.20;;;6.30;;
77152;SDS011;66124;51.146;17.072;2023-11-19T04:51:06;14.10;;;7.70;;
77152;SDS011;66124;51.146;17.072;2023-11-19T04:53:36;15.00;;;6.80;;
77152;SDS011;66124;51.146;17.072;2023-11-19T04:56:09;12.10;;;6.20;;
77152;SDS011;66124;51.146;17.072;2023-11-19T04:58:39;12.80;;;6.00;;
77152;SDS011;66124;51.146;17.072;2023-11-19T05:01:12;14.50;;;6.20;;
77152;SDS011;66124;51.146;17.072;2023-11-19T05:03:42;14.40;;;7.00;;
77152;SDS011;66124;51.146;17.072;2023-11-19T05:06:12;13.10;;;6.90;;
77152;SDS011;66124;51.146;17.072;2023-11-19T05:08:42;12.80;;;7.30;;
77152;SDS011;66124;51.146;17.072;2023-11-19T05:11:11;14.40;;;6.90;;
77152;SDS011;66124;51.146;17.072;2023-11-19T05:13:41;12.60;;;6.90;;
77152;SDS011;66124;51.146;17.072;2023-11-19T05:16:10;10.60;;;5.00;;
77152;SDS011;66124;51.146;17.072;2023-11-19T05:18:39;15.30;;;7.70;;
77152;SDS011;66124;51.146;17.072;2023-11-19T05:21:09;10.50;;;5.10;;
77152;SDS011;66124;51.146;17.072;2023-11-19T05:23:38;11.30;;;5.20;;
77152;SDS011;66124;51.146;17.072;2023-11-19T05:26:08;14.00;;;5.70;;
77152;SDS011;66124;51.146;17.072;2023-11-19T05:28:38;12.90;;;6.20;;
77152;SDS011;66124;51.146;17.072;2023-11-19T05:31:08;14.30;;;6.80;;
77152;SDS011;66124;51.146;17.072;2023-11-19T05:33:37;13.40;;;6.60;;
77152;SDS011;66124;51.146;17.072;2023-11-19T05:36:07;12.70;;;5.70;;
77152;SDS011;66124;51.146;17.072;2023-11-19T05:38:39;12.00;;;5.40;;
77152;SDS011;66124;51.146;17.072;2023-11-19T05:41:09;12.20;;;5.80;;
77152;SDS011;66124;51.146;17.072;2023-11-19T05:43:39;12.30;;;6.50;;
77152;SDS011;66124;51.146;17.072;2023-11-19T05:46:08;11.60;;;5.80;;
77152;SDS011;66124;51.146;17.072;2023-11-19T05:48:37;15.40;;;6.70;;
77152;SDS011;66124;51.146;17.072;2023-11-19T05:51:07;10.60;;;5.80;;
77152;SDS011;66124;51.146;17.072;2023-11-19T05:53:36;12.20;;;5.80;;
77152;SDS011;66124;51.146;17.072;2023-11-19T05:56:06;15.40;;;7.40;;
77152;SDS011;66124;51.146;17.072;2023-11-19T05:58:36;11.60;;;5.80;;
77152;SDS011;66124;51.146;17.072;2023-11-19T06:11:12;11.40;;;5.20;;
77152;SDS011;66124;51.146;17.072;2023-11-19T06:13:42;13.10;;;6.30;;
77152;SDS011;66124;51.146;17.072;2023-11-19T06:16:12;14.00;;;6.30;;
77152;SDS011;66124;51.146;17.072;2023-11-19T06:18:41;10.70;;;5.10;;
77152;SDS011;66124;51.146;17.072;2023-11-19T06:21:11;10.60;;;5.30;;
77152;SDS011;66124;51.146;17.072;2023-11-19T06:23:41;10.20;;;5.40;;
77152;SDS011;66124;51.146;17.072;2023-11-19T06:26:10;13.30;;;6.60;;
77152;SDS011;66124;51.146;17.072;2023-11-19T06:28:40;11.50;;;6.10;;
77152;SDS011;66124;51.146;17.072;2023-11-19T06:31:10;10.80;;;5.20;;
77152;SDS011;66124;51.146;17.072;2023-11-19T06:33:39;9.60;;;5.40;;
77152;SDS011;66124;51.146;17.072;2023-11-19T06:36:09;11.20;;;5.50;;
77152;SDS011;66124;51.146;17.072;2023-11-19T06:38:41;10.20;;;5.50;;
77152;SDS011;66124;51.146;17.072;2023-11-19T06:41:11;9.60;;;4.30;;
77152;SDS011;66124;51.146;17.072;2023-11-19T06:43:40;9.50;;;5.00;;
77152;SDS011;66124;51.146;17.072;2023-11-19T06:46:15;11.30;;;5.10;;
77152;SDS011;66124;51.146;17.072;2023-11-19T06:48:45;11.10;;;5.40;;
77152;SDS011;66124;51.146;17.072;2023-11-19T06:51:15;9.90;;;5.00;;
77152;SDS011;66124;51.146;17.072;2023-11-19T06:53:44;10.60;;;5.90;;
77152;SDS011;66124;51.146;17.072;2023-11-19T06:56:21;9.10;;;4.90;;
77152;SDS011;66124;51.146;17.072;2023-11-19T06:58:51;9.10;;;4.80;;
77152;SDS011;66124;51.146;17.072;2023-11-19T07:01:21;8.70;;;4.40;;
77152;SDS011;66124;51.146;17.072;2023-11-19T07:03:50;9.70;;;5.10;;
77152;SDS011;66124;51.146;17.072;2023-11-19T07:06:20;11.10;;;4.80;;
77152;SDS011;66124;51.146;17.072;2023-11-19T07:08:49;8.00;;;4.10;;
77152;SDS011;66124;51.146;17.072;2023-11-19T07:11:19;9.50;;;5.20;;
77152;SDS011;66124;51.146;17.072;2023-11-19T07:13:48;8.20;;;4.70;;
77152;SDS011;66124;51.146;17.072;2023-11-19T07:16:18;8.10;;;4.40;;
77152;SDS011;66124;51.146;17.072;2023-11-19T07:18:47;8.20;;;4.70;;
77152;SDS011;66124;51.146;17.072;2023-11-19T07:21:17;5.20;;;3.00;;
77152;SDS011;66124;51.146;17.072;2023-11-19T07:31:14;9.10;;;5.20;;
77152;SDS011;66124;51.146;17.072;2023-11-19T07:33:44;10.90;;;4.80;;
77152;SDS011;66124;51.146;17.072;2023-11-19T07:36:14;10.00;;;4.60;;
77152;SDS011;66124;51.146;17.072;2023-11-19T07:38:45;6.30;;;4.00;;
77152;SDS011;66124;51.146;17.072;2023-11-19T07:41:15;7.30;;;3.90;;
77152;SDS011;66124;51.146;17.072;2023-11-19T07:43:45;10.10;;;5.10;;
77152;SDS011;66124;51.146;17.072;2023-11-19T07:46:14;6.80;;;4.10;;
77152;SDS011;66124;51.146;17.072;2023-11-19T07:48:43;8.90;;;5.00;;
77152;SDS011;66124;51.146;17.072;2023-11-19T07:51:14;6.40;;;3.30;;
77152;SDS011;66124;51.146;17.072;2023-11-19T07:53:43;8.30;;;4.60;;
77152;SDS011;66124;51.146;17.072;2023-11-19T07:56:13;8.00;;;4.30;;
77152;SDS011;66124;51.146;17.072;2023-11-19T07:58:42;8.80;;;4.70;;
77152;SDS011;66124;51.146;17.072;2023-11-19T08:01:12;8.10;;;4.20;;
77152;SDS011;66124;51.146;17.072;2023-11-19T08:03:43;7.20;;;4.30;;
77152;SDS011;66124;51.146;17.072;2023-11-19T08:06:12;8.40;;;4.90;;
77152;SDS011;66124;51.146;17.072;2023-11-19T08:08:41;9.00;;;4.20;;
77152;SDS011;66124;51.146;17.072;2023-11-19T08:11:11;9.70;;;4.70;;
77152;SDS011;66124;51.146;17.072;2023-11-19T08:13:40;11.40;;;5.40;;
77152;SDS011;66124;51.146;17.072;2023-11-19T08:16:10;7.50;;;4.00;;
77152;SDS011;66124;51.146;17.072;2023-11-19T08:18:40;12.70;;;5.30;;
77152;SDS011;66124;51.146;17.072;2023-11-19T08:21:10;9.70;;;4.70;;
77152;SDS011;66124;51.146;17.072;2023-11-19T08:23:40;9.00;;;4.70;;
77152;SDS011;66124;51.146;17.072;2023-11-19T08:26:10;8.50;;;4.40;;
77152;SDS011;66124;51.146;17.072;2023-11-19T08:28:39;9.50;;;4.50;;
77152;SDS011;66124;51.146;17.072;2023-11-19T08:31:10;8.80;;;5.00;;
77152;SDS011;66124;51.146;17.072;2023-11-19T08:33:39;8.90;;;4.50;;
77152;SDS011;66124;51.146;17.072;2023-11-19T08:36:09;7.20;;;4.20;;
77152;SDS011;66124;51.146;17.072;2023-11-19T08:38:44;8.20;;;4.10;;
77152;SDS011;66124;51.146;17.072;2023-11-19T08:51:14;9.50;;;5.40;;
77152;SDS011;66124;51.146;17.072;2023-11-19T08:53:44;9.20;;;4.80;;
77152;SDS011;66124;51.146;17.072;2023-11-19T08:56:13;8.20;;;4.30;;
77152;SDS011;66124;51.146;17.072;2023-11-19T08:58:42;9.60;;;4.80;;
77152;SDS011;66124;51.146;17.072;2023-11-19T09:01:12;10.20;;;5.20;;
77152;SDS011;66124;51.146;17.072;2023-11-19T09:03:43;9.40;;;4.30;;
77152;SDS011;66124;51.146;17.072;2023-11-19T09:06:13;8.60;;;4.50;;
77152;SDS011;66124;51.146;17.072;2023-11-19T09:08:43;7.10;;;3.70;;
77152;SDS011;66124;51.146;17.072;2023-11-19T09:11:13;10.80;;;5.00;;
77152;SDS011;66124;51.146;17.072;2023-11-19T09:13:42;10.00;;;4.90;;
77152;SDS011;66124;51.146;17.072;2023-11-19T09:16:12;7.80;;;4.60;;
77152;SDS011;66124;51.146;17.072;2023-11-19T09:18:42;8.80;;;4.60;;
77152;SDS011;66124;51.146;17.072;2023-11-19T09:21:11;9.30;;;4.40;;
77152;SDS011;66124;51.146;17.072;2023-11-19T09:23:41;9.00;;;5.00;;
77152;SDS011;66124;51.146;17.072;2023-11-19T09:26:10;9.50;;;5.20;;
77152;SDS011;66124;51.146;17.072;2023-11-19T09:28:41;9.70;;;4.30;;
77152;SDS011;66124;51.146;17.072;2023-11-19T09:31:16;10.00;;;5.30;;
77152;SDS011;66124;51.146;17.072;2023-11-19T09:33:46;7.90;;;4.20;;
77152;SDS011;66124;51.146;17.072;2023-11-19T09:36:15;7.70;;;3.70;;
77152;SDS011;66124;51.146;17.072;2023-11-19T09:38:45;8.10;;;4.30;;
77152;SDS011;66124;51.146;17.072;2023-11-19T09:41:14;10.30;;;5.10;;
77152;SDS011;66124;51.146;17.072;2023-11-19T09:43:45;9.60;;;5.50;;
77152;SDS011;66124;51.146;17.072;2023-11-19T09:46:14;9.30;;;5.00;;
77152;SDS011;66124;51.146;17.072;2023-11-19T09:48:44;10.10;;;5.10;;
77152;SDS011;66124;51.146;17.072;2023-11-19T09:51:14;12.80;;;6.40;;
77152;SDS011;66124;51.146;17.072;2023-11-19T09:53:44;11.80;;;6.00;;
77152;SDS011;66124;51.146;17.072;2023-11-19T09:56:13;8.90;;;4.70;;
77152;SDS011;66124;51.146;17.072;2023-11-19T09:58:43;12.20;;;4.60;;
77152;SDS011;66124;51.146;17.072;2023-11-19T10:01:13;1.20;;;0.80;;
77152;SDS011;66124;51.146;17.072;2023-11-19T10:11:36;8.40;;;4.60;;
77152;SDS011;66124;51.146;17.072;2023-11-19T10:14:06;9.10;;;5.30;;
77152;SDS011;66124;51.146;17.072;2023-11-19T10:16:36;8.10;;;4.30;;
77152;SDS011;66124;51.146;17.072;2023-11-19T10:21:40;9.10;;;4.00;;
77152;SDS011;66124;51.146;17.072;2023-11-19T10:24:09;7.10;;;4.10;;
77152;SDS011;66124;51.146;17.072;2023-11-19T10:26:39;7.50;;;4.00;;
77152;SDS011;66124;51.146;17.072;2023-11-19T10:29:09;10.20;;;5.00;;
77152;SDS011;66124;51.146;17.072;2023-11-19T10:31:41;7.70;;;4.10;;
77152;SDS011;66124;51.146;17.072;2023-11-19T10:34:25;8.00;;;3.70;;
77152;SDS011;66124;51.146;17.072;2023-11-19T10:36:56;8.00;;;4.50;;
77152;SDS011;66124;51.146;17.072;2023-11-19T10:39:25;10.30;;;5.00;;
77152;SDS011;66124;51.146;17.072;2023-11-19T10:42:16;8.00;;;4.10;;
77152;SDS011;66124;51.146;17.072;2023-11-19T10:44:46;7.40;;;4.30;;
77152;SDS011;66124;51.146;17.072;2023-11-19T10:47:16;8.30;;;4.20;;
77152;SDS011;66124;51.146;17.072;2023-11-19T10:49:50;9.40;;;4.50;;
77152;SDS011;66124;51.146;17.072;2023-11-19T10:52:19;9.90;;;4.30;;
77152;SDS011;66124;51.146;17.072;2023-11-19T10:54:49;10.60;;;5.00;;
77152;SDS011;66124;51.146;17.072;2023-11-19T10:57:21;7.60;;;4.10;;
77152;SDS011;66124;51.146;17.072;2023-11-19T10:59:53;7.70;;;4.40;;
77152;SDS011;66124;51.146;17.072;2023-11-19T11:02:28;7.20;;;3.80;;
77152;SDS011;66124;51.146;17.072;2023-11-19T11:05:01;8.80;;;4.70;;
77152;SDS011;66124;51.146;17.072;2023-11-19T11:07:32;8.00;;;4.50;;
77152;SDS011;66124;51.146;17.072;2023-11-19T11:10:03;6.10;;;3.40;;
77152;SDS011;66124;51.146;17.072;2023-11-19T11:12:37;9.00;;;5.00;;
77152;SDS011;66124;51.146;17.072;2023-11-19T11:15:08;12.40;;;5.80;;
77152;SDS011;66124;51.146;17.072;2023-11-19T11:17:40;9.50;;;4.30;;
77152;SDS011;66124;51.146;17.072;2023-11-19T11:20:11;5.90;;;3.60;;
77152;SDS011;66124;51.146;17.072;2023-11-19T11:31:29;7.10;;;3.70;;
77152;SDS011;66124;51.146;17.072;2023-11-19T11:34:08;9.10;;;4.40;;
77152;SDS011;66124;51.146;17.072;2023-11-19T11:37:00;7.00;;;4.20;;
77152;SDS011;66124;51.146;17.072;2023-11-19T11:39:39;8.00;;;4.70;;
77152;SDS011;66124;51.146;17.072;2023-11-19T11:45:03;8.20;;;5.00;;
77152;SDS011;66124;51.146;17.072;2023-11-19T11:50:46;4.80;;;3.30;;
77152;SDS011;66124;51.146;17.072;2023-11-19T11:53:22;4.50;;;2.60;;
77152;SDS011;66124;51.146;17.072;2023-11-19T11:55:57;6.20;;;3.10;;
77152;SDS011;66124;51.146;17.072;2023-11-19T11:58:28;4.60;;;2.60;;
77152;SDS011;66124;51.146;17.072;2023-11-19T12:01:04;5.20;;;3.00;;
77152;SDS011;66124;51.146;17.072;2023-11-19T12:03:33;3.50;;;2.50;;
77152;SDS011;66124;51.146;17.072;2023-11-19T12:06:05;5.60;;;2.80;;
77152;SDS011;66124;51.146;17.072;2023-11-19T12:08:35;5.60;;;2.90;;
77152;SDS011;66124;51.146;17.072;2023-11-19T12:11:06;4.40;;;2.50;;
77152;SDS011;66124;51.146;17.072;2023-11-19T12:13:53;4.30;;;2.30;;
77152;SDS011;66124;51.146;17.072;2023-11-19T12:16:23;4.00;;;2.20;;
77152;SDS011;66124;51.146;17.072;2023-11-19T12:18:53;4.60;;;2.20;;
77152;SDS011;66124;51.146;17.072;2023-11-19T12:21:30;3.60;;;1.90;;
77152;SDS011;66124;51.146;17.072;2023-11-19T12:24:00;4.10;;;2.10;;
77152;SDS011;66124;51.146;17.072;2023-11-19T12:26:38;3.80;;;2.30;;
77152;SDS011;66124;51.146;17.072;2023-11-19T12:29:07;2.90;;;1.90;;
77152;SDS011;66124;51.146;17.072;2023-11-19T12:31:37;3.10;;;1.90;;
77152;SDS011;66124;51.146;17.072;2023-11-19T12:34:14;4.10;;;2.50;;
77152;SDS011;66124;51.146;17.072;2023-11-19T12:36:44;3.80;;;2.70;;
77152;SDS011;66124;51.146;17.072;2023-11-19T12:39:13;3.90;;;2.20;;
77152;SDS011;66124;51.146;17.072;2023-11-19T12:41:52;3.90;;;1.70;;
77152;SDS011;66124;51.146;17.072;2023-11-19T12:49:56;5.50;;;2.70;;
77152;SDS011;66124;51.146;17.072;2023-11-19T12:52:26;5.20;;;2.80;;
77152;SDS011;66124;51.146;17.072;2023-11-19T12:54:55;5.60;;;2.40;;
77152;SDS011;66124;51.146;17.072;2023-11-19T12:57:36;5.30;;;2.70;;
77152;SDS011;66124;51.146;17.072;2023-11-19T13:00:17;4.30;;;2.40;;
77152;SDS011;66124;51.146;17.072;2023-11-19T13:02:49;4.20;;;2.10;;
77152;SDS011;66124;51.146;17.072;2023-11-19T13:05:26;4.00;;;2.50;;
77152;SDS011;66124;51.146;17.072;2023-11-19T13:08:00;4.60;;;2.20;;
77152;SDS011;66124;51.146;17.072;2023-11-19T13:10:31;4.30;;;2.30;;
77152;SDS011;66124;51.146;17.072;2023-11-19T13:13:04;5.70;;;2.90;;
77152;SDS011;66124;51.146;17.072;2023-11-19T13:15:35;4.90;;;2.80;;
77152;SDS011;66124;51.146;17.072;2023-11-19T13:18:05;5.30;;;2.30;;
77152;SDS011;66124;51.146;17.072;2023-11-19T13:20:34;4.50;;;2.50;;
77152;SDS011;66124;51.146;17.072;2023-11-19T13:23:04;4.70;;;2.40;;
77152;SDS011;66124;51.146;17.072;2023-11-19T13:25:34;4.70;;;2.70;;
77152;SDS011;66124;51.146;17.072;2023-11-19T13:28:04;4.00;;;2.60;;
77152;SDS011;66124;51.146;17.072;2023-11-19T13:30:33;6.20;;;2.90;;
77152;SDS011;66124;51.146;17.072;2023-11-19T13:33:03;5.90;;;3.20;;
77152;SDS011;66124;51.146;17.072;2023-11-19T13:35:32;4.60;;;3.00;;
77152;SDS011;66124;51.146;17.072;2023-11-19T13:38:01;4.50;;;2.80;;
77152;SDS011;66124;51.146;17.072;2023-11-19T13:40:31;8.00;;;4.00;;
77152;SDS011;66124;51.146;17.072;2023-11-19T13:43:01;6.10;;;3.20;;
77152;SDS011;66124;51.146;17.072;2023-11-19T13:45:30;11.70;;;5.90;;
77152;SDS011;66124;51.146;17.072;2023-11-19T13:47:59;10.10;;;5.50;;
77152;SDS011;66124;51.146;17.072;2023-11-19T13:50:29;6.40;;;4.00;;
77152;SDS011;66124;51.146;17.072;2023-11-19T13:52:58;7.90;;;3.90;;
77152;SDS011;66124;51.146;17.072;2023-11-19T13:55:28;6.30;;;3.40;;
77152;SDS011;66124;51.146;17.072;2023-11-19T13:57:57;5.90;;;3.10;;
77152;SDS011;66124;51.146;17.072;2023-11-19T14:10:54;8.20;;;4.20;;
77152;SDS011;66124;51.146;17.072;2023-11-19T14:13:24;8.50;;;4.20;;
77152;SDS011;66124;51.146;17.072;2023-11-19T14:15:54;6.30;;;4.50;;
77152;SDS011;66124;51.146;17.072;2023-11-19T14:18:23;9.00;;;5.40;;
77152;SDS011;66124;51.146;17.072;2023-11-19T14:20:53;7.70;;;4.40;;
77152;SDS011;66124;51.146;17.072;2023-11-19T14:23:22;8.00;;;3.80;;
77152;SDS011;66124;51.146;17.072;2023-11-19T14:25:52;6.70;;;4.30;;
77152;SDS011;66124;51.146;17.072;2023-11-19T14:28:21;8.90;;;5.60;;
77152;SDS011;66124;51.146;17.072;2023-11-19T14:30:50;7.30;;;4.00;;
77152;SDS011;66124;51.146;17.072;2023-11-19T14:33:20;9.40;;;5.00;;
77152;SDS011;66124;51.146;17.072;2023-11-19T14:35:49;8.10;;;4.70;;
77152;SDS011;66124;51.146;17.072;2023-11-19T14:38:19;8.50;;;5.20;;
77152;SDS011;66124;51.146;17.072;2023-11-19T14:40:48;8.40;;;5.30;;
77152;SDS011;66124;51.146;17.072;2023-11-19T14:43:18;9.20;;;5.30;;
77152;SDS011;66124;51.146;17.072;2023-11-19T14:45:47;10.20;;;5.60;;
77152;SDS011;66124;51.146;17.072;2023-11-19T14:48:17;8.90;;;4.80;;
77152;SDS011;66124;51.146;17.072;2023-11-19T14:50:46;7.80;;;4.60;;
77152;SDS011;66124;51.146;17.072;2023-11-19T14:53:16;10.20;;;5.70;;
77152;SDS011;66124;51.146;17.072;2023-11-19T14:55:45;10.70;;;5.00;;
77152;SDS011;66124;51.146;17.072;2023-11-19T14:58:15;7.60;;;5.00;;
77152;SDS011;66124;51.146;17.072;2023-11-19T15:00:44;6.20;;;4.00;;
77152;SDS011;66124;51.146;17.072;2023-11-19T15:03:14;7.10;;;4.00;;
77152;SDS011;66124;51.146;17.072;2023-11-19T15:05:44;8.90;;;4.20;;
77152;SDS011;66124;51.146;17.072;2023-11-19T15:08:13;7.90;;;4.40;;
77152;SDS011;66124;51.146;17.072;2023-11-19T15:10:43;7.10;;;3.90;;
77152;SDS011;66124;51.146;17.072;2023-11-19T15:13:12;6.30;;;3.70;;
77152;SDS011;66124;51.146;17.072;2023-11-19T15:15:42;6.70;;;3.10;;
77152;SDS011;66124;51.146;17.072;2023-11-19T15:18:12;8.10;;;4.00;;
77152;SDS011;66124;51.146;17.072;2023-11-19T15:20:44;4.40;;;2.20;;
77152;SDS011;66124;51.146;17.072;2023-11-19T15:31:10;5.60;;;2.80;;
77152;SDS011;66124;51.146;17.072;2023-11-19T15:36:34;7.80;;;3.30;;
77152;SDS011;66124;51.146;17.072;2023-11-19T15:39:04;7.20;;;3.00;;
77152;SDS011;66124;51.146;17.072;2023-11-19T15:41:33;6.20;;;2.70;;
77152;SDS011;66124;51.146;17.072;2023-11-19T15:44:03;6.50;;;2.70;;
77152;SDS011;66124;51.146;17.072;2023-11-19T15:46:33;6.60;;;2.80;;
77152;SDS011;66124;51.146;17.072;2023-11-19T15:49:03;6.30;;;3.30;;
77152;SDS011;66124;51.146;17.072;2023-11-19T15:51:33;5.00;;;2.80;;
77152;SDS011;66124;51.146;17.072;2023-11-19T15:54:02;5.30;;;2.90;;
77152;SDS011;66124;51.146;17.072;2023-11-19T15:56:32;8.00;;;3.30;;
77152;SDS011;66124;51.146;17.072;2023-11-19T15:59:01;6.20;;;3.30;;
77152;SDS011;66124;51.146;17.072;2023-11-19T16:01:31;6.70;;;3.70;;
77152;SDS011;66124;51.146;17.072;2023-11-19T16:04:04;6.30;;;3.00;;
77152;SDS011;66124;51.146;17.072;2023-11-19T16:06:34;5.60;;;3.40;;
77152;SDS011;66124;51.146;17.072;2023-11-19T16:09:04;4.90;;;2.70;;
77152;SDS011;66124;51.146;17.072;2023-11-19T16:11:34;6.70;;;2.70;;
77152;SDS011;66124;51.146;17.072;2023-11-19T16:14:03;4.20;;;2.20;;
77152;SDS011;66124;51.146;17.072;2023-11-19T16:16:32;5.00;;;2.60;;
77152;SDS011;66124;51.146;17.072;2023-11-19T16:19:02;8.00;;;3.00;;
77152;SDS011;66124;51.146;17.072;2023-11-19T16:21:31;6.40;;;3.50;;
77152;SDS011;66124;51.146;17.072;2023-11-19T16:24:01;6.70;;;3.20;;
77152;SDS011;66124;51.146;17.072;2023-11-19T16:26:31;6.50;;;2.80;;
77152;SDS011;66124;51.146;17.072;2023-11-19T16:29:01;8.60;;;4.00;;
77152;SDS011;66124;51.146;17.072;2023-11-19T16:31:30;10.90;;;3.80;;
77152;SDS011;66124;51.146;17.072;2023-11-19T16:34:00;9.00;;;3.80;;
77152;SDS011;66124;51.146;17.072;2023-11-19T16:36:29;6.70;;;3.00;;
77152;SDS011;66124;51.146;17.072;2023-11-19T16:38:59;6.60;;;3.10;;
77152;SDS011;66124;51.146;17.072;2023-11-19T16:41:28;8.20;;;3.20;;
77152;SDS011;66124;51.146;17.072;2023-11-19T16:43:58;7.20;;;2.90;;
77152;SDS011;66124;51.146;17.072;2023-11-19T16:46:28;4.40;;;2.90;;